Time;durP1;ratioP1;P1;durP2;ratioP2;P2;SDS_P1;SDS_P2;PMS_P1;PMS_P2;Temp;Humidity;BMP_temperature;BMP_pressure;BME280_temperature;BME280_humidity;BME280_pressure;Samples;Min_cycle;Max_cycle;Signal;HPM_P1;HPM_P2
2021/05/03 00:00:25;;;;;;;3.60;2.95;;;;;;;;;;1465509;40;20434;-81
2021/05/03 00:01:26;;;;;;;4.63;2.83;;;;;;;;;;1465643;40;20470;-81
2021/05/03 00:02:27;;;;;;;3.80;3.20;;;;;;;;;;1470486;40;20449;-80
2021/05/03 00:03:28;;;;;;;5.22;3.35;;;;;;;;;;1467574;40;20808;-81
2021/05/03 00:04:29;;;;;;;3.88;3.15;;;;;;;;;;1470194;40;20418;-81
2021/05/03 00:05:30;;;;;;;4.07;3.33;;;;;;;;;;1465535;40;20399;-80
2021/05/03 00:06:31;;;;;;;10.30;3.78;;;;;;;;;;1461828;40;20432;-81
2021/05/03 00:07:32;;;;;;;4.47;3.15;;;;;;;;;;1461589;40;20436;-81
2021/05/03 00:08:33;;;;;;;4.80;3.53;;;;;;;;;;1463933;40;20830;-81
2021/05/03 00:09:34;;;;;;;5.25;3.60;;;;;;;;;;1463417;40;20411;-81
2021/05/03 00:10:35;;;;;;;5.93;3.85;;;;;;;;;;1466261;40;20415;-81
2021/05/03 00:11:36;;;;;;;6.13;3.90;;;;;;;;;;1471152;40;20787;-81
2021/05/03 00:12:37;;;;;;;5.47;3.70;;;;;;;;;;1463931;40;20408;-80
2021/05/03 00:13:38;;;;;;;5.70;3.70;;;;;;;;;;1463529;40;20934;-80
2021/05/03 00:14:39;;;;;;;6.57;3.83;;;;;;;;;;1465740;40;20436;-80
2021/05/03 00:15:40;;;;;;;6.80;4.22;;;;;;;;;;1466038;40;20458;-81
2021/05/03 00:16:41;;;;;;;4.82;4.35;;;;;;;;;;1464987;40;20409;-81
2021/05/03 00:17:43;;;;;;;4.50;3.40;;;;;;;;;;1454568;40;20416;-80
2021/05/03 00:18:44;;;;;;;4.15;3.83;;;;;;;;;;1466070;40;20424;-81
2021/05/03 00:19:45;;;;;;;7.82;4.38;;;;;;;;;;1472388;40;20410;-81
2021/05/03 00:20:46;;;;;;;6.10;4.05;;;;;;;;;;1470700;40;20418;-81
2021/05/03 00:21:47;;;;;;;5.45;4.45;;;;;;;;;;1470185;40;20406;-81
2021/05/03 00:22:48;;;;;;;4.72;4.30;;;;;;;;;;1475365;40;20402;-81
2021/05/03 00:23:50;;;;;;;4.63;4.22;;;;;;;;;;1468189;40;20419;-82
2021/05/03 00:24:51;;;;;;;5.15;4.30;;;;;;;;;;1465870;40;20494;-81
2021/05/03 00:25:52;;;;;;;7.25;4.22;;;;;;;;;;1471045;40;20398;-81
2021/05/03 00:26:52;;;;;;;6.07;4.50;;;;;;;;;;1470690;40;20811;-81
2021/05/03 00:27:54;;;;;;;6.80;4.85;;;;;;;;;;1471247;40;20406;-81
2021/05/03 00:28:55;;;;;;;5.05;4.40;;;;;;;;;;1468208;40;20431;-81
2021/05/03 00:29:56;;;;;;;4.93;4.40;;;;;;;;;;1466174;40;20878;-81
2021/05/03 00:30:57;;;;;;;9.55;4.95;;;;;;;;;;1470382;40;20415;-80
2021/05/03 00:31:58;;;;;;;7.18;5.03;;;;;;;;;;1471172;40;20598;-80
2021/05/03 00:32:59;;;;;;;7.82;4.90;;;;;;;;;;1468069;40;20433;-81
2021/05/03 00:34:00;;;;;;;7.60;5.15;;;;;;;;;;1469521;40;20505;-80
2021/05/03 00:35:01;;;;;;;6.32;5.20;;;;;;;;;;1471654;40;20425;-81
2021/05/03 00:36:03;;;;;;;6.38;5.55;;;;;;;;;;1469276;40;20468;-81
2021/05/03 00:37:04;;;;;;;7.00;5.95;;;;;;;;;;1467520;40;20411;-81
2021/05/03 00:38:05;;;;;;;6.47;5.15;;;;;;;;;;1471062;40;20425;-81
2021/05/03 00:39:07;;;;;;;6.72;5.07;;;;;;;;;;1465619;40;20466;-81
2021/05/03 00:40:08;;;;;;;7.00;5.25;;;;;;;;;;1465567;40;20411;-81
2021/05/03 00:41:09;;;;;;;6.03;5.18;;;;;;;;;;1461865;40;20437;-81
2021/05/03 00:42:10;;;;;;;6.38;5.78;;;;;;;;;;1461765;40;20417;-81
2021/05/03 00:43:17;;;;;;;7.57;5.53;;;;;;;;;;1466449;40;20411;-81
2021/05/03 00:44:18;;;;;;;6.55;5.95;;;;;;;;;;1464176;40;20399;-80
2021/05/03 00:45:20;;;;;;;6.60;5.43;;;;;;;;;;1466055;40;20391;-81
2021/05/03 00:46:24;;;;;;;7.60;6.15;;;;;;;;;;1457393;40;20430;-81
2021/05/03 00:47:25;;;;;;;6.47;5.78;;;;;;;;;;1457869;40;20425;-81
2021/05/03 00:48:27;;;;;;;7.03;5.88;;;;;;;;;;1461412;40;20472;-81
2021/05/03 00:49:28;;;;;;;8.73;5.93;;;;;;;;;;1462444;40;20838;-81
2021/05/03 00:50:30;;;;;;;6.90;5.72;;;;;;;;;;1465856;40;20451;-81
2021/05/03 00:51:31;;;;;;;8.48;6.13;;;;;;;;;;1466304;40;20458;-81
2021/05/03 00:52:32;;;;;;;8.40;5.87;;;;;;;;;;1465812;40;20545;-81
2021/05/03 00:53:33;;;;;;;7.40;6.13;;;;;;;;;;1466280;40;20415;-81
2021/05/03 00:54:34;;;;;;;7.38;5.60;;;;;;;;;;1466142;40;20757;-81
2021/05/03 00:55:35;;;;;;;7.90;6.10;;;;;;;;;;1465770;40;20740;-81
2021/05/03 00:56:36;;;;;;;9.05;6.47;;;;;;;;;;1465139;40;20721;-80
2021/05/03 00:57:38;;;;;;;8.65;6.43;;;;;;;;;;1461626;40;20420;-80
2021/05/03 00:58:39;;;;;;;8.85;6.70;;;;;;;;;;1460122;40;20553;-81
2021/05/03 00:59:40;;;;;;;8.40;6.78;;;;;;;;;;1464740;40;20395;-81
2021/05/03 01:00:41;;;;;;;10.10;7.35;;;;;;;;;;1463548;40;20416;-81
2021/05/03 01:01:42;;;;;;;7.07;6.25;;;;;;;;;;1462127;40;20423;-81
2021/05/03 01:02:43;;;;;;;7.97;6.60;;;;;;;;;;1457232;40;20406;-81
2021/05/03 01:03:45;;;;;;;8.13;6.68;;;;;;;;;;1454653;40;20447;-81
2021/05/03 01:04:46;;;;;;;8.93;7.05;;;;;;;;;;1461252;40;20408;-82
2021/05/03 01:05:47;;;;;;;10.50;7.38;;;;;;;;;;1465674;40;20408;-81
2021/05/03 01:06:47;;;;;;;10.05;7.07;;;;;;;;;;1465752;40;20435;-81
2021/05/03 01:07:48;;;;;;;9.75;7.20;;;;;;;;;;1462122;40;20503;-81
2021/05/03 01:08:49;;;;;;;10.50;7.75;;;;;;;;;;1461362;40;20421;-81
2021/05/03 01:09:50;;;;;;;7.97;7.18;;;;;;;;;;1465511;40;20411;-81
2021/05/03 01:10:51;;;;;;;8.68;6.45;;;;;;;;;;1465361;40;20419;-81
2021/05/03 01:11:52;;;;;;;9.60;7.00;;;;;;;;;;1464432;40;20410;-81
2021/05/03 01:12:54;;;;;;;10.68;7.22;;;;;;;;;;1460941;40;20465;-81
2021/05/03 01:13:55;;;;;;;9.20;7.60;;;;;;;;;;1458128;40;20419;-81
2021/05/03 01:14:56;;;;;;;7.78;6.85;;;;;;;;;;1465540;40;20411;-81
2021/05/03 01:15:57;;;;;;;7.88;7.18;;;;;;;;;;1463367;40;20425;-81
2021/05/03 01:16:58;;;;;;;8.00;7.20;;;;;;;;;;1461672;40;21104;-81
2021/05/03 01:18:00;;;;;;;9.25;7.40;;;;;;;;;;1461726;40;20834;-81
2021/05/03 01:19:01;;;;;;;9.02;7.47;;;;;;;;;;1461673;40;20583;-81
2021/05/03 01:20:09;;;;;;;8.15;7.28;;;;;;;;;;1464629;40;20403;-81
2021/05/03 01:21:10;;;;;;;8.50;7.75;;;;;;;;;;1465303;40;20681;-81
2021/05/03 01:22:11;;;;;;;11.07;7.65;;;;;;;;;;1461557;40;20405;-81
2021/05/03 01:23:11;;;;;;;10.35;7.30;;;;;;;;;;1461406;40;20412;-81
2021/05/03 01:24:13;;;;;;;11.00;7.60;;;;;;;;;;1460099;40;20488;-81
2021/05/03 01:25:14;;;;;;;9.05;7.40;;;;;;;;;;1461396;40;20425;-81
2021/05/03 01:26:15;;;;;;;9.95;8.60;;;;;;;;;;1466232;40;20415;-82
2021/05/03 01:27:16;;;;;;;10.80;8.40;;;;;;;;;;1461401;40;21138;-81
2021/05/03 01:28:17;;;;;;;9.18;8.23;;;;;;;;;;1460898;40;20706;-81
2021/05/03 01:29:18;;;;;;;13.15;8.80;;;;;;;;;;1459865;40;20474;-81
2021/05/03 01:30:19;;;;;;;10.60;9.50;;;;;;;;;;1457237;40;20709;-81
2021/05/03 01:31:20;;;;;;;11.77;10.00;;;;;;;;;;1465931;40;20407;-81
2021/05/03 01:32:21;;;;;;;10.70;9.57;;;;;;;;;;1465812;40;20407;-81
2021/05/03 01:33:23;;;;;;;12.23;9.68;;;;;;;;;;1457454;40;20408;-80
2021/05/03 01:34:24;;;;;;;10.88;9.80;;;;;;;;;;1449241;40;20406;-80
2021/05/03 01:35:25;;;;;;;12.90;11.10;;;;;;;;;;1457483;40;20413;-82
2021/05/03 01:36:26;;;;;;;11.20;10.15;;;;;;;;;;1460046;40;20858;-81
2021/05/03 01:37:27;;;;;;;14.60;10.60;;;;;;;;;;1466026;40;20431;-81
2021/05/03 01:38:28;;;;;;;12.10;10.73;;;;;;;;;;1461205;40;20405;-81
2021/05/03 01:39:29;;;;;;;12.10;10.77;;;;;;;;;;1461369;40;20483;-81
2021/05/03 01:40:31;;;;;;;14.90;12.20;;;;;;;;;;1461622;40;20424;-81
2021/05/03 01:41:32;;;;;;;14.27;11.13;;;;;;;;;;1466053;40;20490;-81
2021/05/03 01:42:34;;;;;;;12.60;11.27;;;;;;;;;;1469719;40;20796;-81
2021/05/03 01:43:35;;;;;;;15.38;12.52;;;;;;;;;;1464709;40;20431;-81
2021/05/03 01:44:36;;;;;;;13.50;11.90;;;;;;;;;;1462510;40;20421;-81
2021/05/03 01:45:38;;;;;;;13.65;12.25;;;;;;;;;;1468533;40;20400;-81
2021/05/03 01:46:40;;;;;;;13.82;12.25;;;;;;;;;;1470192;40;20402;-81
2021/05/03 01:47:41;;;;;;;15.37;12.00;;;;;;;;;;1470247;40;20533;-81
2021/05/03 01:48:42;;;;;;;15.35;13.15;;;;;;;;;;1469460;40;20414;-80
2021/05/03 01:49:43;;;;;;;14.30;12.70;;;;;;;;;;1469257;40;20413;-81
2021/05/03 01:50:45;;;;;;;15.18;12.07;;;;;;;;;;1469612;40;20421;-81
2021/05/03 01:51:46;;;;;;;16.40;13.35;;;;;;;;;;1470289;40;20417;-81
2021/05/03 01:52:48;;;;;;;13.98;12.50;;;;;;;;;;1465392;40;20412;-81
2021/05/03 01:53:49;;;;;;;13.63;12.18;;;;;;;;;;1466079;40;20427;-81
2021/05/03 01:54:51;;;;;;;16.73;12.27;;;;;;;;;;1465105;40;20492;-81
2021/05/03 01:55:53;;;;;;;14.38;12.88;;;;;;;;;;1465640;40;20399;-81
2021/05/03 01:56:54;;;;;;;14.50;12.15;;;;;;;;;;1470174;40;20436;-81
2021/05/03 01:57:55;;;;;;;15.32;12.98;;;;;;;;;;1470797;40;20497;-81
2021/05/03 01:58:56;;;;;;;17.70;12.88;;;;;;;;;;1468051;40;20462;-81
2021/05/03 01:59:58;;;;;;;13.07;11.73;;;;;;;;;;1470076;40;20802;-81
2021/05/03 02:01:00;;;;;;;17.40;13.10;;;;;;;;;;1469300;40;20526;-81
2021/05/03 02:02:01;;;;;;;15.25;12.82;;;;;;;;;;1469959;40;20425;-81
2021/05/03 02:03:02;;;;;;;14.43;12.85;;;;;;;;;;1470632;40;20522;-81
2021/05/03 02:04:04;;;;;;;14.60;12.15;;;;;;;;;;1474091;40;20402;-81
2021/05/03 02:05:05;;;;;;;15.15;12.65;;;;;;;;;;1474283;40;20425;-82
2021/05/03 02:06:06;;;;;;;16.85;14.15;;;;;;;;;;1474093;40;20424;-81
2021/05/03 02:07:08;;;;;;;14.43;12.95;;;;;;;;;;1470316;40;20425;-81
2021/05/03 02:08:09;;;;;;;15.82;13.25;;;;;;;;;;1466054;40;20430;-81
2021/05/03 02:09:11;;;;;;;15.15;13.38;;;;;;;;;;1461913;40;20400;-81
2021/05/03 02:10:13;;;;;;;15.70;13.27;;;;;;;;;;1465649;40;20420;-80
2021/05/03 02:11:14;;;;;;;15.35;11.95;;;;;;;;;;1473514;40;20410;-81
2021/05/03 02:12:15;;;;;;;15.45;13.85;;;;;;;;;;1468688;40;20466;-80
2021/05/03 02:13:16;;;;;;;15.65;14.05;;;;;;;;;;1470549;40;20464;-81
2021/05/03 02:14:17;;;;;;;17.95;14.07;;;;;;;;;;1465924;40;20418;-81
2021/05/03 02:15:18;;;;;;;18.50;14.13;;;;;;;;;;1466187;40;20541;-81
2021/05/03 02:16:19;;;;;;;15.23;13.50;;;;;;;;;;1466067;40;20748;-81
2021/05/03 02:17:20;;;;;;;19.40;14.05;;;;;;;;;;1466307;40;20408;-82
2021/05/03 02:18:21;;;;;;;17.38;15.57;;;;;;;;;;1466032;40;20399;-81
2021/05/03 02:19:22;;;;;;;17.13;14.32;;;;;;;;;;1466350;40;20407;-81
2021/05/03 02:20:23;;;;;;;17.83;15.10;;;;;;;;;;1464989;40;20415;-81
2021/05/03 02:21:24;;;;;;;17.20;14.50;;;;;;;;;;1465697;40;20467;-81
2021/05/03 02:22:25;;;;;;;16.73;14.52;;;;;;;;;;1469866;40;20405;-81
2021/05/03 02:23:26;;;;;;;19.23;15.93;;;;;;;;;;1469794;40;20405;-81
2021/05/03 02:24:27;;;;;;;16.48;14.45;;;;;;;;;;1471320;40;20425;-81
2021/05/03 02:25:28;;;;;;;18.23;14.90;;;;;;;;;;1467114;40;20411;-82
2021/05/03 02:26:29;;;;;;;17.42;14.73;;;;;;;;;;1464466;40;20426;-81
2021/05/03 02:27:30;;;;;;;18.58;14.90;;;;;;;;;;1473757;40;20417;-81
2021/05/03 02:28:31;;;;;;;17.83;15.20;;;;;;;;;;1472505;40;20457;-81
2021/05/03 02:29:32;;;;;;;19.15;15.93;;;;;;;;;;1470919;40;20406;-81
2021/05/03 02:30:33;;;;;;;18.15;15.57;;;;;;;;;;1463508;40;20409;-81
2021/05/03 02:31:34;;;;;;;19.13;16.38;;;;;;;;;;1465498;40;20935;-82
2021/05/03 02:32:36;;;;;;;18.73;15.38;;;;;;;;;;1470030;40;20408;-81
2021/05/03 02:33:37;;;;;;;18.83;15.32;;;;;;;;;;1464666;40;20419;-81
2021/05/03 02:34:38;;;;;;;19.35;14.77;;;;;;;;;;1461909;40;20452;-81
2021/05/03 02:35:39;;;;;;;21.30;16.83;;;;;;;;;;1465191;40;20396;-81
2021/05/03 02:36:41;;;;;;;21.02;16.20;;;;;;;;;;1464811;40;20737;-81
2021/05/03 02:37:44;;;;;;;20.52;16.08;;;;;;;;;;1465726;40;20416;-81
2021/05/03 02:38:45;;;;;;;21.95;16.65;;;;;;;;;;1464807;40;20419;-81
2021/05/03 02:39:46;;;;;;;18.13;15.32;;;;;;;;;;1470268;40;20718;-81
2021/05/03 02:40:47;;;;;;;20.38;16.60;;;;;;;;;;1464827;40;20408;-81
2021/05/03 02:41:48;;;;;;;19.52;16.17;;;;;;;;;;1465453;40;20599;-81
2021/05/03 02:42:50;;;;;;;21.23;17.30;;;;;;;;;;1469781;40;20772;-81
2021/05/03 02:43:51;;;;;;;22.92;18.05;;;;;;;;;;1469269;40;20421;-81
2021/05/03 02:44:52;;;;;;;21.73;17.85;;;;;;;;;;1468304;40;20783;-81
2021/05/03 02:45:53;;;;;;;24.10;18.40;;;;;;;;;;1471828;40;20478;-82
2021/05/03 02:46:54;;;;;;;22.77;18.77;;;;;;;;;;1469847;40;20500;-81
2021/05/03 02:47:56;;;;;;;26.05;18.67;;;;;;;;;;1469886;40;20413;-81
2021/05/03 02:48:58;;;;;;;22.50;19.83;;;;;;;;;;1469381;40;20414;-82
2021/05/03 02:49:59;;;;;;;25.13;18.95;;;;;;;;;;1470305;40;20503;-81
2021/05/03 02:51:00;;;;;;;22.80;18.85;;;;;;;;;;1469955;40;20421;-81
2021/05/03 02:52:01;;;;;;;22.23;18.27;;;;;;;;;;1469865;40;20433;-81
2021/05/03 02:53:02;;;;;;;21.23;18.27;;;;;;;;;;1466228;40;20606;-80
2021/05/03 02:54:04;;;;;;;21.20;17.90;;;;;;;;;;1468017;40;20428;-81
2021/05/03 02:55:05;;;;;;;25.48;19.98;;;;;;;;;;1469725;40;20679;-81
2021/05/03 02:56:06;;;;;;;23.42;19.60;;;;;;;;;;1470625;40;20458;-81
2021/05/03 02:57:07;;;;;;;23.23;18.83;;;;;;;;;;1469990;40;20474;-82
2021/05/03 02:58:09;;;;;;;26.23;20.50;;;;;;;;;;1470331;40;20407;-82
2021/05/03 02:59:10;;;;;;;24.95;20.13;;;;;;;;;;1465750;40;20406;-81
2021/05/03 03:00:13;;;;;;;27.43;20.90;;;;;;;;;;1463907;40;20559;-81
2021/05/03 03:01:14;;;;;;;22.33;19.85;;;;;;;;;;1470909;40;20406;-81
2021/05/03 03:02:15;;;;;;;26.13;21.13;;;;;;;;;;1470642;40;20408;-81
2021/05/03 03:03:16;;;;;;;26.65;20.23;;;;;;;;;;1475745;40;20401;-81
2021/05/03 03:04:17;;;;;;;25.10;20.45;;;;;;;;;;1475809;40;20417;-81
2021/05/03 03:05:18;;;;;;;24.27;21.13;;;;;;;;;;1470900;40;20414;-79
2021/05/03 03:06:21;;;;;;;25.85;21.83;;;;;;;;;;1468652;40;20407;-81
2021/05/03 03:07:22;;;;;;;24.88;21.85;;;;;;;;;;1474029;40;20409;-81
2021/05/03 03:08:23;;;;;;;26.60;21.65;;;;;;;;;;1473469;40;20491;-81
2021/05/03 03:09:24;;;;;;;24.83;21.48;;;;;;;;;;1474220;40;20651;-81
2021/05/03 03:10:25;;;;;;;26.23;21.92;;;;;;;;;;1469489;40;20414;-81
2021/05/03 03:11:27;;;;;;;27.52;22.95;;;;;;;;;;1468930;40;20469;-81
2021/05/03 03:12:28;;;;;;;28.67;22.75;;;;;;;;;;1472054;40;20402;-81
2021/05/03 03:13:30;;;;;;;28.77;22.65;;;;;;;;;;1471180;40;20404;-81
2021/05/03 03:14:31;;;;;;;30.35;22.10;;;;;;;;;;1466056;40;20415;-81
2021/05/03 03:15:35;;;;;;;26.35;20.85;;;;;;;;;;1466657;40;20410;-81
2021/05/03 03:16:36;;;;;;;28.77;23.10;;;;;;;;;;1470069;40;20663;-81
2021/05/03 03:17:37;;;;;;;30.70;23.92;;;;;;;;;;1471242;40;20479;-81
2021/05/03 03:18:39;;;;;;;30.63;23.30;;;;;;;;;;1465631;40;20506;-82
2021/05/03 03:19:40;;;;;;;29.85;21.92;;;;;;;;;;1466032;40;20411;-81
2021/05/03 03:20:42;;;;;;;28.98;22.52;;;;;;;;;;1469558;40;20885;-81
2021/05/03 03:21:43;;;;;;;26.95;23.33;;;;;;;;;;1470446;40;20398;-82
2021/05/03 03:22:44;;;;;;;30.15;23.67;;;;;;;;;;1470454;40;20406;-81
2021/05/03 03:23:45;;;;;;;29.10;23.20;;;;;;;;;;1470036;40;20883;-82
2021/05/03 03:24:46;;;;;;;28.90;22.98;;;;;;;;;;1465470;40;20415;-81
2021/05/03 03:25:47;;;;;;;25.80;21.95;;;;;;;;;;1469964;40;20509;-82
2021/05/03 03:26:48;;;;;;;26.98;21.38;;;;;;;;;;1465603;40;20430;-82
2021/05/03 03:27:49;;;;;;;25.58;22.35;;;;;;;;;;1464103;40;20410;-81
2021/05/03 03:28:51;;;;;;;31.90;22.98;;;;;;;;;;1468922;40;20464;-81
2021/05/03 03:29:52;;;;;;;26.00;21.75;;;;;;;;;;1470148;40;20762;-81
2021/05/03 03:30:53;;;;;;;27.00;22.33;;;;;;;;;;1470034;40;20441;-81
2021/05/03 03:31:54;;;;;;;29.15;22.58;;;;;;;;;;1470126;40;20414;-81
2021/05/03 03:32:55;;;;;;;29.53;21.87;;;;;;;;;;1470253;40;20417;-81
2021/05/03 03:33:56;;;;;;;28.25;23.25;;;;;;;;;;1463805;40;20479;-81
2021/05/03 03:34:57;;;;;;;29.27;22.63;;;;;;;;;;1461474;40;20831;-81
2021/05/03 03:35:58;;;;;;;27.15;22.63;;;;;;;;;;1466026;40;20431;-81
2021/05/03 03:36:59;;;;;;;26.58;22.13;;;;;;;;;;1465580;40;20414;-81
2021/05/03 03:38:00;;;;;;;27.35;21.88;;;;;;;;;;1466240;40;20422;-81
2021/05/03 03:39:02;;;;;;;26.98;22.17;;;;;;;;;;1469598;40;20444;-81
2021/05/03 03:40:05;;;;;;;27.38;22.20;;;;;;;;;;1469598;40;20417;-82
2021/05/03 03:41:06;;;;;;;27.55;22.42;;;;;;;;;;1463375;40;20419;-81
2021/05/03 03:42:07;;;;;;;29.25;21.30;;;;;;;;;;1456602;40;20418;-81
2021/05/03 03:43:08;;;;;;;24.92;20.08;;;;;;;;;;1456343;40;20532;-81
2021/05/03 03:44:09;;;;;;;29.60;22.33;;;;;;;;;;1462792;40;20522;-81
2021/05/03 03:45:11;;;;;;;24.83;21.07;;;;;;;;;;1469959;40;20526;-81
2021/05/03 03:46:12;;;;;;;28.25;21.58;;;;;;;;;;1469758;40;20410;-81
2021/05/03 03:47:13;;;;;;;26.48;20.95;;;;;;;;;;1465276;40;20415;-81
2021/05/03 03:48:15;;;;;;;26.80;22.10;;;;;;;;;;1462523;40;20800;-81
2021/05/03 03:49:16;;;;;;;26.03;21.47;;;;;;;;;;1465591;40;20561;-81
2021/05/03 03:50:17;;;;;;;27.17;21.13;;;;;;;;;;1461470;40;20408;-81
2021/05/03 03:51:18;;;;;;;25.45;21.42;;;;;;;;;;1461296;40;20438;-81
2021/05/03 03:52:20;;;;;;;24.65;20.98;;;;;;;;;;1469741;40;20409;-81
2021/05/03 03:53:21;;;;;;;29.67;21.98;;;;;;;;;;1465618;40;20880;-81
2021/05/03 03:54:22;;;;;;;29.50;21.23;;;;;;;;;;1461498;40;20515;-81
2021/05/03 03:55:23;;;;;;;23.48;20.80;;;;;;;;;;1461477;40;20457;-81
2021/05/03 03:56:24;;;;;;;25.10;20.02;;;;;;;;;;1461621;40;20441;-81
2021/05/03 03:57:25;;;;;;;25.77;21.17;;;;;;;;;;1465261;40;20436;-81
2021/05/03 03:58:26;;;;;;;29.25;21.05;;;;;;;;;;1461995;40;20453;-81
2021/05/03 03:59:27;;;;;;;24.63;20.53;;;;;;;;;;1464654;40;20761;-81
2021/05/03 04:00:28;;;;;;;26.40;20.63;;;;;;;;;;1465791;40;20407;-81
2021/05/03 04:01:30;;;;;;;24.13;19.88;;;;;;;;;;1466347;40;20407;-81
2021/05/03 04:02:31;;;;;;;27.65;20.55;;;;;;;;;;1465801;40;20418;-81
2021/05/03 04:03:33;;;;;;;23.73;20.05;;;;;;;;;;1466140;40;20431;-81
2021/05/03 04:04:36;;;;;;;25.10;20.73;;;;;;;;;;1470353;40;20429;-81
2021/05/03 04:07:16;;;;;;;23.48;19.08;;;;;;;;;;1462783;40;20512;-81
2021/05/03 04:08:25;;;;;;;25.45;20.02;;;;;;;;;;1469736;40;20398;-81
2021/05/03 04:10:55;;;;;;;23.77;19.67;;;;;;;;;;1468649;40;20401;-81
2021/05/03 04:12:12;;;;;;;22.27;19.08;;;;;;;;;;1469229;40;20480;-81
2021/05/03 04:13:45;;;;;;;24.60;20.00;;;;;;;;;;1464461;40;20486;-81
2021/05/03 04:24:56;;;;;;;25.77;20.92;;;;;;;;;;1465582;40;20669;-81
2021/05/03 04:25:57;;;;;;;23.08;19.85;;;;;;;;;;1466193;40;20477;-80
2021/05/03 04:26:58;;;;;;;23.08;20.55;;;;;;;;;;1456521;40;20415;-81
2021/05/03 04:27:59;;;;;;;24.80;20.23;;;;;;;;;;1455780;40;20567;-81
2021/05/03 04:29:00;;;;;;;24.60;20.42;;;;;;;;;;1458427;40;20422;-81
2021/05/03 04:30:02;;;;;;;24.30;20.70;;;;;;;;;;1461644;40;20440;-81
2021/05/03 04:31:03;;;;;;;26.37;21.70;;;;;;;;;;1465322;40;20560;-82
2021/05/03 04:32:04;;;;;;;23.02;19.83;;;;;;;;;;1466683;40;20438;-81
2021/05/03 04:33:05;;;;;;;25.35;21.00;;;;;;;;;;1465684;40;20684;-81
2021/05/03 04:34:07;;;;;;;25.42;20.55;;;;;;;;;;1464531;40;20416;-81
2021/05/03 04:35:08;;;;;;;26.08;21.25;;;;;;;;;;1466058;40;20502;-81
2021/05/03 04:36:09;;;;;;;23.17;20.70;;;;;;;;;;1470067;40;20428;-81
2021/05/03 04:37:10;;;;;;;26.35;21.67;;;;;;;;;;1470640;40;20406;-81
2021/05/03 04:38:12;;;;;;;26.08;22.08;;;;;;;;;;1466942;40;20414;-81
2021/05/03 04:39:13;;;;;;;25.38;21.38;;;;;;;;;;1465390;40;20540;-81
2021/05/03 04:40:14;;;;;;;23.30;20.58;;;;;;;;;;1470163;40;20395;-81
2021/05/03 04:41:15;;;;;;;29.50;21.75;;;;;;;;;;1466757;40;20479;-81
2021/05/03 04:42:16;;;;;;;28.02;22.10;;;;;;;;;;1465432;40;20396;-81
2021/05/03 04:43:17;;;;;;;26.15;21.17;;;;;;;;;;1469778;40;20414;-81
2021/05/03 04:44:18;;;;;;;27.58;21.83;;;;;;;;;;1471271;40;20849;-82
2021/05/03 04:45:20;;;;;;;28.83;22.15;;;;;;;;;;1470253;40;20414;-81
2021/05/03 04:46:21;;;;;;;27.98;21.45;;;;;;;;;;1470492;40;20538;-80
2021/05/03 04:47:22;;;;;;;25.42;21.58;;;;;;;;;;1470380;40;20411;-80
2021/05/03 04:48:23;;;;;;;29.65;22.75;;;;;;;;;;1466544;40;20531;-81
2021/05/03 04:49:27;;;;;;;32.33;21.83;;;;;;;;;;1470783;40;20414;-80
2021/05/03 04:50:28;;;;;;;28.10;22.48;;;;;;;;;;1470221;40;20421;-81
2021/05/03 04:51:29;;;;;;;26.48;23.38;;;;;;;;;;1470797;40;20389;-81
2021/05/03 04:52:30;;;;;;;29.53;23.40;;;;;;;;;;1466099;40;20410;-81
2021/05/03 04:53:31;;;;;;;27.60;22.00;;;;;;;;;;1465493;40;20410;-80
2021/05/03 04:54:38;;;;;;;27.90;23.08;;;;;;;;;;1470430;40;20475;-81
2021/05/03 04:55:39;;;;;;;32.00;24.85;;;;;;;;;;1465656;40;20399;-81
2021/05/03 04:56:41;;;;;;;31.08;24.13;;;;;;;;;;1460887;40;20475;-80
2021/05/03 04:57:42;;;;;;;31.40;24.90;;;;;;;;;;1464213;40;20443;-80
2021/05/03 04:58:44;;;;;;;28.67;24.70;;;;;;;;;;1457469;40;20716;-80
2021/05/03 04:59:45;;;;;;;32.17;25.02;;;;;;;;;;1461077;40;20787;-81
2021/05/03 05:00:47;;;;;;;38.28;25.95;;;;;;;;;;1457506;40;20445;-81
2021/05/03 05:01:47;;;;;;;31.77;25.55;;;;;;;;;;1466175;40;20434;-81
2021/05/03 05:02:49;;;;;;;34.70;24.95;;;;;;;;;;1470081;40;20791;-81
2021/05/03 05:03:50;;;;;;;32.30;26.42;;;;;;;;;;1468466;40;20503;-81
2021/05/03 05:04:51;;;;;;;31.80;26.60;;;;;;;;;;1465725;40;20407;-80
2021/05/03 05:05:53;;;;;;;32.03;26.85;;;;;;;;;;1465472;40;20415;-81
2021/05/03 05:06:57;;;;;;;33.78;26.42;;;;;;;;;;1465277;40;20800;-81
2021/05/03 05:07:58;;;;;;;34.88;26.85;;;;;;;;;;1465706;40;20519;-81
2021/05/03 05:09:04;;;;;;;33.55;27.63;;;;;;;;;;1468652;40;20409;-81
2021/05/03 05:10:05;;;;;;;31.33;27.38;;;;;;;;;;1469751;40;20584;-80
2021/05/03 05:11:06;;;;;;;36.47;28.63;;;;;;;;;;1469025;40;21155;-81
2021/05/03 05:12:07;;;;;;;38.47;29.35;;;;;;;;;;1468676;40;20494;-81
2021/05/03 05:13:08;;;;;;;38.20;29.25;;;;;;;;;;1466767;40;20434;-81
2021/05/03 05:14:09;;;;;;;36.42;29.17;;;;;;;;;;1467028;40;20415;-81
2021/05/03 05:15:10;;;;;;;38.35;29.35;;;;;;;;;;1465165;40;20728;-80
2021/05/03 05:16:11;;;;;;;35.72;29.45;;;;;;;;;;1465893;40;20392;-81
2021/05/03 05:17:15;;;;;;;34.10;28.67;;;;;;;;;;1469848;40;20408;-81
2021/05/03 05:18:17;;;;;;;37.35;28.10;;;;;;;;;;1469796;40;20494;-81
2021/05/03 05:19:18;;;;;;;36.67;28.27;;;;;;;;;;1470772;40;20405;-80
2021/05/03 05:20:21;;;;;;;35.65;28.85;;;;;;;;;;1472828;40;20881;-81
2021/05/03 05:21:24;;;;;;;35.60;28.65;;;;;;;;;;1468681;40;20414;-81
2021/05/03 05:22:25;;;;;;;34.75;28.85;;;;;;;;;;1469929;40;20391;-79
2021/05/03 05:23:27;;;;;;;35.72;27.95;;;;;;;;;;1474176;40;20406;-81
2021/05/03 05:24:28;;;;;;;35.75;28.35;;;;;;;;;;1473934;40;20412;-81
2021/05/03 05:25:29;;;;;;;36.53;29.23;;;;;;;;;;1473709;40;20429;-80
2021/05/03 05:26:29;;;;;;;37.60;29.45;;;;;;;;;;1473147;40;20429;-81
2021/05/03 05:27:30;;;;;;;35.17;29.90;;;;;;;;;;1472076;40;20496;-81
2021/05/03 05:28:31;;;;;;;34.58;29.08;;;;;;;;;;1471255;40;20418;-81
2021/05/03 05:29:33;;;;;;;35.35;29.20;;;;;;;;;;1465444;40;20408;-81
2021/05/03 05:30:34;;;;;;;36.40;29.25;;;;;;;;;;1465323;40;20423;-81
2021/05/03 05:31:35;;;;;;;34.30;29.13;;;;;;;;;;1465759;40;20412;-81
2021/05/03 05:32:37;;;;;;;38.45;29.88;;;;;;;;;;1465503;40;20410;-80
2021/05/03 05:33:38;;;;;;;36.55;29.50;;;;;;;;;;1466735;40;20419;-81
2021/05/03 05:34:39;;;;;;;36.70;30.00;;;;;;;;;;1465281;40;20837;-81
2021/05/03 05:35:40;;;;;;;37.78;30.08;;;;;;;;;;1465500;40;20419;-80
2021/05/03 05:36:41;;;;;;;37.80;31.02;;;;;;;;;;1465895;40;20419;-80
2021/05/03 05:37:45;;;;;;;38.83;31.35;;;;;;;;;;1470020;40;20416;-81
2021/05/03 05:38:46;;;;;;;38.47;30.92;;;;;;;;;;1465568;40;20446;-81
2021/05/03 05:39:47;;;;;;;37.22;31.33;;;;;;;;;;1465451;40;20415;-82
2021/05/03 05:40:48;;;;;;;37.50;30.57;;;;;;;;;;1465879;40;20407;-82
2021/05/03 05:41:50;;;;;;;39.03;31.08;;;;;;;;;;1460149;40;20427;-81
2021/05/03 05:42:51;;;;;;;37.58;30.17;;;;;;;;;;1465477;40;20404;-81
2021/05/03 05:43:59;;;;;;;39.93;31.47;;;;;;;;;;1462194;40;20543;-81
2021/05/03 05:45:00;;;;;;;42.03;32.55;;;;;;;;;;1461552;40;20448;-80
2021/05/03 05:46:02;;;;;;;35.35;30.58;;;;;;;;;;1462939;40;20487;-81
2021/05/03 05:47:02;;;;;;;41.80;32.27;;;;;;;;;;1458931;40;20439;-81
2021/05/03 05:48:04;;;;;;;42.15;33.03;;;;;;;;;;1458467;40;20474;-81
2021/05/03 05:49:05;;;;;;;41.42;31.65;;;;;;;;;;1466239;40;20411;-80
2021/05/03 05:50:07;;;;;;;41.70;31.42;;;;;;;;;;1467022;40;21043;-81
2021/05/03 05:51:08;;;;;;;39.25;31.10;;;;;;;;;;1467523;40;20441;-81
2021/05/03 05:52:09;;;;;;;39.75;32.30;;;;;;;;;;1471056;40;20410;-81
2021/05/03 05:53:10;;;;;;;38.35;31.98;;;;;;;;;;1470569;40;21112;-80
2021/05/03 05:54:11;;;;;;;39.17;30.92;;;;;;;;;;1470780;40;20418;-81
2021/05/03 05:55:12;;;;;;;41.97;33.65;;;;;;;;;;1468631;40;20400;-81
2021/05/03 05:56:13;;;;;;;41.58;32.55;;;;;;;;;;1469307;40;20399;-81
2021/05/03 05:57:14;;;;;;;43.45;32.83;;;;;;;;;;1467801;40;20418;-80
2021/05/03 05:58:16;;;;;;;39.95;33.65;;;;;;;;;;1460855;40;20452;-81
2021/05/03 05:59:17;;;;;;;40.65;32.83;;;;;;;;;;1463206;40;20438;-81
2021/05/03 06:00:18;;;;;;;38.97;32.90;;;;;;;;;;1466867;40;20666;-81
2021/05/03 06:01:21;;;;;;;41.80;33.17;;;;;;;;;;1460946;40;20413;-80
2021/05/03 06:02:22;;;;;;;42.50;34.13;;;;;;;;;;1461318;40;20397;-80
2021/05/03 06:03:24;;;;;;;41.17;32.17;;;;;;;;;;1465469;40;20412;-81
2021/05/03 06:04:25;;;;;;;41.53;33.33;;;;;;;;;;1465621;40;20490;-80
2021/05/03 06:05:26;;;;;;;39.70;32.10;;;;;;;;;;1465836;40;20538;-80
2021/05/03 06:06:27;;;;;;;41.40;34.43;;;;;;;;;;1465314;40;20822;-81
2021/05/03 06:07:28;;;;;;;41.00;35.17;;;;;;;;;;1466698;40;20423;-80
2021/05/03 06:08:31;;;;;;;41.50;33.72;;;;;;;;;;1462995;40;20429;-80
2021/05/03 06:09:32;;;;;;;43.40;33.47;;;;;;;;;;1463652;40;20459;-80
2021/05/03 06:10:33;;;;;;;39.72;34.70;;;;;;;;;;1468475;40;20419;-80
2021/05/03 06:11:34;;;;;;;40.40;34.38;;;;;;;;;;1467450;40;20411;-80
2021/05/03 06:12:35;;;;;;;43.25;35.38;;;;;;;;;;1466064;40;20403;-80
2021/05/03 06:13:41;;;;;;;45.33;37.42;;;;;;;;;;1462764;40;20482;-80